Meteo Giornale » Osservazioni meteo Stati Uniti (USA) » Birchwood
ore: 12:56 - Osservazioni Meteo Birchwood
Lat. 61° 25' N Lon. 149° 31' W Alt. 29 metri s.l.m.
7 °C
Coperto
Temp. 24 Ore
4 °C
14 °C
Nord
5.5 Km/h
Dew point 3 °C
Umidità 75 %
Visibilità 10 Km
Il sole sorge alle ore 06:48
Il sole tramonta alle ore 21:08
| Data e Ora | Cielo e Fenomeni | T °C | DP °C | Um. % | Pres. hPa | Vis. km | Vento km/h | |
|---|---|---|---|---|---|---|---|---|
| Oggi h: 12:56 | Coperto | 7 | 3 | 75 | 1002 | 10 | N 5.5 | |
| Oggi h: 12:35 | Coperto | 7 | 4 | 81 | 1002 | 10 | N 5.5 | |
| Oggi h: 12:28 | Pioggia | 7 | 4 | 81 | 1003 | 10 | N 0 | |
| Oggi h: 12:21 | Pioggia | 6 | 4 | 86 | 1003 | 10 | N 5.5 | |
| Oggi h: 11:56 | Pioggia | 7 | 5 | 87 | 1003 | 10 | NO 7.4 | |
| Oggi h: 11:42 | Pioggia | 6 | 5 | 93 | 1001 | 10 | N 5.5 | |
| Oggi h: 10:56 | Pioggia | 7 | 4 | 81 | 1002 | 10 | O 18.5 | |
| Oggi h: 09:56 | Coperto | 7 | 4 | 81 | 1002 | 10 | S/SO 7.4 | |
| Oggi h: 08:56 | Coperto | 5 | 2 | 80 | 1002 | 10 | SE 9.3 | |
| Oggi h: 08:30 | Coperto | 4 | 2 | 86 | 1002 | 10 | SE 11.1 | |
| Oggi h: 07:56 | Pioggia | 4 | 2 | 86 | 1003 | 10 | E/SE 13 | |
| Oggi h: 06:56 | Pioggia Foschia | 5 | 3 | 86 | 1004 | 6 | E/SE 16.7 | |
| Oggi h: 06:38 | Pioggia Foschia | 6 | 4 | 86 | 1004 | 5 | E 7.4 | |
| Oggi h: 05:56 | Pioggia | 6 | 4 | 86 | 1004 | 10 | N 7.4 | |
| Oggi h: 05:43 | Pioggia | 6 | 4 | 86 | 1003 | 10 | N/NO 14.8 | |
| Oggi h: 05:34 | Pioggia | 6 | 4 | 86 | 1002 | 11 | N/NO 18.5 | |
| Oggi h: 05:28 | Pioggia Foschia | 7 | 5 | 87 | 1001 | 10 | N/NO 24 | |
| Oggi h: 04:56 | Pioggia Foschia | 7 | 7 | 100 | 1001 | 8 | N 0 | |
| Oggi h: 03:56 | Coperto | 7 | 6 | 93 | 1001 | 10 | N 0 | |
| Oggi h: 02:56 | Nuvoloso | 7 | 6 | 93 | 1002 | 14 | N 0 | |
| Oggi h: 01:56 | Sereno | 8 | 7 | 93 | 1003 | 10 | E/NE 7.4 | |
| Oggi h: 00:56 | Coperto | 9 | 8 | 93 | 1004 | 10 | N 0 | |
| Ieri h: 23:56 | Coperto | 9 | 8 | 93 | 1004 | 10 | NE 9.3 | |
| Ieri h: 22:56 | Coperto | 10 | 8 | 87 | 1005 | 10 | N 5.5 | |
| Ieri h: 21:56 | Pioggia | 11 | 9 | 87 | 1006 | 10 | N 5.5 | |
| Ieri h: 20:56 | Pioggia | 11 | 9 | 87 | 1007 | 10 | N 0 | |
| Ieri h: 19:56 | Pioggia | 12 | 9 | 81 | 1007 | 10 | NE 7.4 | |
| Ieri h: 18:56 | Pioggia | 13 | 9 | 76 | 1008 | 10 | N 0 | |
| Ieri h: 17:56 | Pioggia | 14 | 6 | 58 | 1009 | 10 | S/SO 7.4 | |
| Ieri h: 16:56 | Nuvoloso | 14 | 6 | 58 | 1009 | 10 | S/SO 7.4 | |
| Ieri h: 15:56 | Sereno | 14 | 5 | 54 | 1010 | 10 | SO 7.4 | |
| Ieri h: 14:56 | Sereno | 14 | 7 | 62 | 1011 | 10 | O 9.3 | |
| Ieri h: 13:56 | Sereno | 13 | 6 | 62 | 1011 | 10 | N 0 | |



